createdAt,value
2018-01-27T00:00:52.470Z,69.17
2018-01-27T00:03:20.015Z,67.10
2018-01-27T00:05:47.610Z,59.80
2018-01-27T00:08:15.226Z,71.20
2018-01-27T00:10:42.769Z,60.70
2018-01-27T00:13:10.325Z,55.67
2018-01-27T00:15:38.151Z,65.50
2018-01-27T00:18:05.710Z,61.73
2018-01-27T00:20:33.257Z,68.97
2018-01-27T00:23:01.719Z,56.47
2018-01-27T00:25:29.310Z,71.27
2018-01-27T00:27:56.901Z,68.20
2018-01-27T00:30:24.458Z,68.50
2018-01-27T00:32:52.048Z,63.37
2018-01-27T00:35:19.606Z,87.93
2018-01-27T00:37:47.162Z,86.90
2018-01-27T00:40:14.705Z,68.00
2018-01-27T00:42:42.254Z,76.50
2018-01-27T00:45:09.850Z,61.10
2018-01-27T00:47:37.404Z,65.20
2018-01-27T00:50:04.990Z,66.13
2018-01-27T00:52:32.548Z,70.23
2018-01-27T00:55:00.134Z,84.63
2018-01-27T00:57:27.679Z,75.17
2018-01-27T00:59:55.271Z,75.10
2018-01-27T01:02:22.866Z,60.40
2018-01-27T01:04:50.409Z,73.93
2018-01-27T01:07:18.007Z,83.57
2018-01-27T01:09:45.570Z,63.20
2018-01-27T01:12:13.130Z,75.27
2018-01-27T01:14:40.702Z,72.83
2018-01-27T01:17:08.490Z,74.20
2018-01-27T01:19:36.379Z,79.10
2018-01-27T01:22:03.931Z,72.50
2018-01-27T01:24:31.490Z,98.50
2018-01-27T01:26:59.141Z,74.50
2018-01-27T01:29:26.682Z,62.47
2018-01-27T01:31:54.238Z,78.33
2018-01-27T01:34:22.534Z,83.07
2018-01-27T01:36:50.098Z,84.57
2018-01-27T01:39:17.772Z,86.10
2018-01-27T01:41:45.422Z,77.77
2018-01-27T01:44:18.761Z,88.47
2018-01-27T01:46:46.305Z,96.97
2018-01-27T01:49:24.749Z,84.17
2018-01-27T01:51:52.358Z,87.83
2018-01-27T01:54:19.905Z,87.10
2018-01-27T01:56:47.494Z,99.60
2018-01-27T01:59:15.041Z,78.03
2018-01-27T02:01:42.596Z,86.73
2018-01-27T02:04:10.150Z,82.40
2018-01-27T02:06:37.924Z,87.43
2018-01-27T02:09:05.475Z,95.30
2018-01-27T02:11:33.045Z,80.73
2018-01-27T02:14:01.410Z,94.23
2018-01-27T02:16:29.678Z,70.23
2018-01-27T02:18:58.067Z,95.23
2018-01-27T02:21:26.493Z,105.80
2018-01-27T02:23:54.039Z,74.77
2018-01-27T02:26:21.582Z,73.90
2018-01-27T02:28:49.241Z,82.60
2018-01-27T02:31:16.805Z,74.90
2018-01-27T02:33:44.466Z,82.37
2018-01-27T02:36:12.133Z,104.87
2018-01-27T02:38:39.692Z,107.00
2018-01-27T02:41:07.249Z,93.67
2018-01-27T02:43:34.823Z,85.70
2018-01-27T02:46:02.368Z,84.40
2018-01-27T02:48:29.911Z,90.77
2018-01-27T02:50:57.695Z,90.77
2018-01-27T02:53:26.025Z,81.87
2018-01-27T02:55:53.565Z,79.90
2018-01-27T02:58:21.119Z,83.87
2018-01-27T03:00:48.668Z,80.10
2018-01-27T03:03:16.319Z,81.43
2018-01-27T03:05:43.982Z,95.93
2018-01-27T03:08:11.641Z,90.40
2018-01-27T03:10:40.105Z,79.77
2018-01-27T03:13:09.294Z,92.13
2018-01-27T03:15:36.985Z,79.53
2018-01-27T03:18:04.549Z,74.40
2018-01-27T03:20:32.087Z,93.03
2018-01-27T03:22:59.635Z,87.13
2018-01-27T03:25:27.214Z,81.07
2018-01-27T03:27:54.766Z,89.60
2018-01-27T03:30:22.320Z,87.30
2018-01-27T03:32:50.634Z,94.63
2018-01-27T03:35:18.178Z,90.40
2018-01-27T03:37:45.726Z,97.63
2018-01-27T03:40:13.282Z,100.50
2018-01-27T03:42:40.840Z,93.60
2018-01-27T03:45:08.399Z,104.57
2018-01-27T03:47:36.098Z,104.13
2018-01-27T03:50:04.542Z,77.40
2018-01-27T03:52:32.115Z,82.70
2018-01-27T03:54:59.663Z,91.33
2018-01-27T03:57:27.258Z,103.53
2018-01-27T03:59:54.922Z,92.90
2018-01-27T04:02:22.583Z,92.27
2018-01-27T04:04:50.138Z,106.33
2018-01-27T04:07:17.717Z,91.60
2018-01-27T04:09:45.269Z,91.10
2018-01-27T04:12:13.734Z,96.90
2018-01-27T04:14:42.074Z,93.17
2018-01-27T04:17:09.681Z,105.27
2018-01-27T04:19:37.276Z,90.53
2018-01-27T04:22:04.829Z,101.40
2018-01-27T04:24:32.444Z,104.03
2018-01-27T04:27:00.905Z,86.93
2018-01-27T04:29:29.430Z,97.50
2018-01-27T04:31:57.969Z,117.93
2018-01-27T04:34:26.290Z,102.17
2018-01-27T04:36:54.634Z,108.07
2018-01-27T04:39:22.185Z,109.93
2018-01-27T04:41:50.562Z,92.40
2018-01-27T04:44:18.120Z,101.50
2018-01-27T04:46:45.678Z,94.40
2018-01-27T04:49:14.057Z,104.13
2018-01-27T04:51:42.390Z,110.17
2018-01-27T04:54:10.045Z,110.23
2018-01-27T04:56:38.382Z,111.00
2018-01-27T04:59:06.884Z,104.97
2018-01-27T05:01:35.345Z,106.83
2018-01-27T05:04:03.679Z,106.23
2018-01-27T05:06:32.016Z,104.40
2018-01-27T05:09:00.333Z,110.70
2018-01-27T05:11:27.922Z,91.80
2018-01-27T05:13:55.481Z,115.10
2018-01-27T05:16:24.033Z,97.97
2018-01-27T05:18:51.577Z,97.37
2018-01-27T05:21:19.893Z,110.60
2018-01-27T05:23:47.446Z,100.73
2018-01-27T05:26:15.097Z,105.57
2018-01-27T05:28:42.763Z,117.10
2018-01-27T05:31:11.249Z,102.07
2018-01-27T05:33:38.907Z,81.37
2018-01-27T05:36:07.218Z,96.23
2018-01-27T05:38:34.778Z,100.10
2018-01-27T05:41:02.333Z,94.57
2018-01-27T05:43:29.873Z,92.80
2018-01-27T05:45:57.421Z,81.43
2018-01-27T05:48:24.974Z,89.13
2018-01-27T05:50:52.545Z,100.70
2018-01-27T05:53:20.108Z,94.17
2018-01-27T05:55:47.658Z,95.97
2018-01-27T05:58:15.201Z,100.70
2018-01-27T06:00:42.758Z,100.50
2018-01-27T06:03:10.322Z,89.93
2018-01-27T06:05:37.882Z,106.43
2018-01-27T06:08:05.423Z,82.43
2018-01-27T06:10:32.978Z,107.53
2018-01-27T06:13:00.578Z,101.33
2018-01-27T06:15:28.113Z,98.93
2018-01-27T06:17:56.539Z,117.80
2018-01-27T06:20:24.094Z,98.03
2018-01-27T06:22:51.759Z,99.40
2018-01-27T06:25:19.311Z,92.13
2018-01-27T06:27:46.877Z,90.33
2018-01-27T06:30:14.422Z,99.53
2018-01-27T06:32:41.969Z,100.93
2018-01-27T06:35:09.558Z,110.83
2018-01-27T06:37:37.110Z,103.37
2018-01-27T06:40:04.678Z,107.77
2018-01-27T06:42:32.270Z,113.97
2018-01-27T06:44:59.830Z,115.00
2018-01-27T06:47:27.384Z,102.00
2018-01-27T06:49:54.943Z,121.73
2018-01-27T06:52:22.583Z,98.33
2018-01-27T06:54:50.130Z,132.50
2018-01-27T06:57:17.683Z,104.83
2018-01-27T06:59:45.232Z,111.90
2018-01-27T07:02:12.791Z,106.33
2018-01-27T07:04:40.342Z,106.20
2018-01-27T07:07:07.894Z,115.97
2018-01-27T07:09:35.502Z,102.90
2018-01-27T07:12:03.129Z,85.10
2018-01-27T07:14:31.703Z,94.00
2018-01-27T07:16:59.516Z,94.30
2018-01-27T07:19:27.062Z,114.47
2018-01-27T07:21:54.637Z,117.37
2018-01-27T07:24:22.181Z,99.30
2018-01-27T07:26:49.734Z,108.80
2018-01-27T07:29:17.287Z,91.03
2018-01-27T07:31:44.838Z,98.07
2018-01-27T07:34:12.391Z,111.57
2018-01-27T07:36:39.938Z,89.73
2018-01-27T07:39:07.494Z,100.33
2018-01-27T07:41:35.042Z,85.87
2018-01-27T07:44:02.586Z,91.77
2018-01-27T07:46:30.130Z,96.20
2018-01-27T07:48:57.681Z,118.90
2018-01-27T07:51:25.220Z,97.13
2018-01-27T07:53:52.771Z,90.37
2018-01-27T07:56:20.320Z,99.40
2018-01-27T07:58:47.914Z,100.63
2018-01-27T08:01:15.465Z,95.07
2018-01-27T08:03:43.815Z,88.67
2018-01-27T08:06:12.267Z,96.10
2018-01-27T08:08:40.589Z,88.53
2018-01-27T08:11:08.134Z,93.03
2018-01-27T08:13:35.681Z,82.17
2018-01-27T08:16:03.230Z,99.17
2018-01-27T08:18:31.497Z,92.30
2018-01-27T08:20:59.057Z,93.93
2018-01-27T08:23:26.605Z,80.93
2018-01-27T08:25:54.151Z,91.60
2018-01-27T08:28:21.706Z,79.37
2018-01-27T08:30:49.249Z,77.23
2018-01-27T08:33:16.789Z,73.73
2018-01-27T08:35:44.339Z,77.40
2018-01-27T08:38:11.894Z,76.10
2018-01-27T08:40:39.507Z,58.13
2018-01-27T08:43:07.057Z,68.80
2018-01-27T08:45:35.446Z,61.03
2018-01-27T08:48:03.002Z,60.53
2018-01-27T08:50:30.546Z,74.93
2018-01-27T08:52:58.157Z,73.17
2018-01-27T08:55:25.722Z,62.63
2018-01-27T08:57:53.283Z,52.10
2018-01-27T09:00:21.739Z,54.90
2018-01-27T09:02:49.282Z,56.23
2018-01-27T09:05:16.829Z,49.10
2018-01-27T09:07:44.446Z,59.08
2018-01-27T09:10:12.001Z,58.47
2018-01-27T09:12:39.570Z,43.20
2018-01-27T09:15:07.114Z,63.50
2018-01-27T09:17:34.793Z,52.80
2018-01-27T09:20:02.465Z,45.37
2018-01-27T09:22:30.118Z,47.60
2018-01-27T09:24:57.670Z,46.43
2018-01-27T09:27:25.213Z,40.90
2018-01-27T09:29:52.807Z,55.77
2018-01-27T09:32:20.358Z,48.17
2018-01-27T09:34:48.041Z,37.30
2018-01-27T09:37:15.581Z,40.93
2018-01-27T09:39:43.145Z,49.50
2018-01-27T09:42:10.684Z,47.30
2018-01-27T09:44:38.233Z,40.30
2018-01-27T09:47:05.775Z,40.13
2018-01-27T09:49:33.339Z,38.53
2018-01-27T09:52:00.932Z,35.23
2018-01-27T09:54:28.483Z,43.60
2018-01-27T09:56:56.738Z,36.43
2018-01-27T09:59:24.292Z,36.27
2018-01-27T10:01:51.913Z,26.13
2018-01-27T10:04:19.565Z,36.63
2018-01-27T10:06:47.109Z,31.63
2018-01-27T10:09:14.659Z,37.87
2018-01-27T10:11:42.250Z,40.93
2018-01-27T10:14:09.840Z,46.00
2018-01-27T10:16:37.387Z,42.40
2018-01-27T10:19:04.930Z,38.10
2018-01-27T10:21:32.474Z,39.67
2018-01-27T10:24:00.032Z,34.73
2018-01-27T10:26:27.589Z,31.93
2018-01-27T10:28:55.139Z,50.80
2018-01-27T10:31:22.734Z,29.90
2018-01-27T10:33:50.282Z,43.80
2018-01-27T10:36:17.825Z,32.60
2018-01-27T10:38:45.376Z,34.10
2018-01-27T10:41:12.977Z,36.40
2018-01-27T10:43:40.525Z,27.10
2018-01-27T10:46:08.074Z,32.17
2018-01-27T10:48:35.618Z,30.73
2018-01-27T10:51:03.163Z,26.70
2018-01-27T10:53:30.714Z,26.03
2018-01-27T10:55:58.262Z,26.13
2018-01-27T10:58:25.897Z,28.53
2018-01-27T11:00:53.443Z,25.07
2018-01-27T11:03:21.105Z,25.50
2018-01-27T11:05:48.649Z,24.53
2018-01-27T11:08:16.229Z,24.10
2018-01-27T11:10:43.776Z,19.43
2018-01-27T11:13:11.354Z,24.23
2018-01-27T11:15:38.898Z,16.60
2018-01-27T11:18:06.485Z,24.67
2018-01-27T11:20:34.029Z,19.87
2018-01-27T11:23:01.574Z,24.97
2018-01-27T11:25:29.115Z,23.60
2018-01-27T11:27:57.446Z,27.27
2018-01-27T11:30:25.023Z,24.03
2018-01-27T11:32:52.601Z,21.40
2018-01-27T11:35:20.141Z,21.60
2018-01-27T11:37:47.694Z,27.30
2018-01-27T11:40:15.241Z,25.03
2018-01-27T11:42:42.787Z,24.20
2018-01-27T11:45:10.341Z,30.07
2018-01-27T11:47:37.936Z,26.60
2018-01-27T11:50:05.603Z,22.03
2018-01-27T11:52:33.141Z,23.43
2018-01-27T11:55:00.716Z,21.77
2018-01-27T11:57:29.127Z,26.60
2018-01-27T11:59:56.797Z,29.77
2018-01-27T12:02:24.378Z,26.60
2018-01-27T12:04:51.922Z,28.17
2018-01-27T12:07:20.510Z,19.00
2018-01-27T12:09:48.882Z,25.47
2018-01-27T12:12:16.494Z,25.07
2018-01-27T12:14:44.053Z,24.73
2018-01-27T12:17:11.600Z,30.53
2018-01-27T12:19:40.317Z,26.43
2018-01-27T12:22:07.871Z,32.03
2018-01-27T12:24:35.426Z,23.57
2018-01-27T12:27:02.973Z,25.57
2018-01-27T12:29:30.665Z,25.90
2018-01-27T12:31:58.321Z,30.73
2018-01-27T12:34:25.872Z,23.87
2018-01-27T12:36:53.423Z,28.30
2018-01-27T12:39:20.977Z,21.93
2018-01-27T12:41:48.539Z,21.30
2018-01-27T12:44:16.095Z,26.40
2018-01-27T12:46:43.693Z,24.60
2018-01-27T12:49:11.237Z,28.30
2018-01-27T12:51:38.785Z,27.57
2018-01-27T12:54:06.338Z,31.30
2018-01-27T12:56:33.896Z,25.03
2018-01-27T12:59:01.626Z,26.63
2018-01-27T13:01:29.178Z,24.93
2018-01-27T13:03:56.754Z,33.43
2018-01-27T13:06:24.305Z,29.90
2018-01-27T13:08:51.850Z,28.77
2018-01-27T13:11:19.478Z,33.37
2018-01-27T13:13:47.056Z,32.10
2018-01-27T13:16:14.606Z,31.30
2018-01-27T13:18:42.182Z,30.77
2018-01-27T13:21:09.726Z,33.73
2018-01-27T13:23:37.264Z,27.97
2018-01-27T13:26:04.852Z,21.77
2018-01-27T13:28:32.402Z,23.13
2018-01-27T13:30:59.944Z,26.77
2018-01-27T13:33:27.486Z,36.10
2018-01-27T13:35:55.029Z,25.80
2018-01-27T13:38:22.577Z,38.13
2018-01-27T13:40:51.053Z,27.10
2018-01-27T13:43:18.601Z,27.87
2018-01-27T13:45:46.150Z,26.77
2018-01-27T13:48:13.725Z,33.73
2018-01-27T13:50:41.273Z,29.03
2018-01-27T13:53:08.846Z,24.70
2018-01-27T13:55:36.386Z,28.63
2018-01-27T13:58:03.935Z,23.70
2018-01-27T14:00:31.485Z,27.13
2018-01-27T14:02:59.030Z,28.53
2018-01-27T14:05:26.619Z,28.13
2018-01-27T14:07:54.210Z,29.77
2018-01-27T14:10:22.649Z,25.43
2018-01-27T14:12:50.199Z,32.07
2018-01-27T14:15:17.742Z,24.50
2018-01-27T14:17:45.294Z,33.53
2018-01-27T14:20:13.750Z,28.93
2018-01-27T14:22:41.294Z,28.40
2018-01-27T14:25:08.846Z,33.13
2018-01-27T14:27:36.385Z,28.57
2018-01-27T14:30:03.922Z,22.60
2018-01-27T14:32:31.467Z,32.53
2018-01-27T14:34:59.005Z,26.27
2018-01-27T14:37:26.668Z,25.53
2018-01-27T14:39:54.213Z,21.73
2018-01-27T14:42:21.761Z,27.77
2018-01-27T14:44:49.310Z,38.77
2018-01-27T14:47:16.857Z,30.23
2018-01-27T14:49:44.407Z,25.60
2018-01-27T14:52:12.667Z,27.23
2018-01-27T14:54:40.213Z,35.63
2018-01-27T14:57:07.938Z,27.40
2018-01-27T14:59:35.486Z,30.57
2018-01-27T15:02:03.035Z,33.70
2018-01-27T15:04:31.404Z,28.23
2018-01-27T15:06:58.952Z,24.43
2018-01-27T15:09:26.526Z,26.63
2018-01-27T15:11:54.982Z,21.63
2018-01-27T15:14:22.525Z,25.43
2018-01-27T15:16:50.073Z,26.43
2018-01-27T15:19:17.622Z,29.37
2018-01-27T15:21:45.231Z,31.37
2018-01-27T15:24:12.769Z,28.73
2018-01-27T15:26:40.313Z,22.80
2018-01-27T15:29:07.860Z,23.33
2018-01-27T15:31:35.440Z,23.57
2018-01-27T15:34:02.995Z,29.73
2018-01-27T15:36:30.541Z,25.73
2018-01-27T15:38:58.154Z,33.13
2018-01-27T15:41:25.699Z,28.33
2018-01-27T15:43:54.077Z,34.80
2018-01-27T15:46:22.630Z,33.00
2018-01-27T15:48:50.180Z,37.47
2018-01-27T15:51:17.725Z,34.53
2018-01-27T15:53:46.205Z,41.10
2018-01-27T15:56:13.749Z,40.13
2018-01-27T15:58:42.084Z,38.07
2018-01-27T16:01:09.648Z,36.33
2018-01-27T16:03:38.310Z,37.37
2018-01-27T16:06:06.034Z,37.53
2018-01-27T16:08:33.579Z,38.83
2018-01-27T16:11:01.149Z,55.13
2018-01-27T16:13:28.702Z,43.23
2018-01-27T16:15:56.954Z,38.90
2018-01-27T16:18:24.508Z,39.87
2018-01-27T16:20:52.131Z,33.70
2018-01-27T16:23:19.768Z,35.30
2018-01-27T16:25:47.441Z,35.70
2018-01-27T16:28:15.113Z,34.63
2018-01-27T16:30:42.661Z,37.70
2018-01-27T16:33:10.201Z,32.47
2018-01-27T16:35:37.745Z,29.63
2018-01-27T16:38:05.422Z,36.10
2018-01-27T16:40:33.002Z,31.77
2018-01-27T16:43:00.555Z,35.87
2018-01-27T16:45:28.094Z,35.10
2018-01-27T16:47:55.644Z,30.50
2018-01-27T16:50:23.193Z,33.90
2018-01-27T16:52:50.826Z,31.10
2018-01-27T16:55:18.470Z,38.87
2018-01-27T16:57:46.095Z,30.70
2018-01-27T17:00:13.658Z,30.87
2018-01-27T17:02:41.218Z,36.20
2018-01-27T17:05:08.777Z,34.07
2018-01-27T17:07:36.325Z,33.10
2018-01-27T17:10:03.934Z,34.50
2018-01-27T17:12:31.593Z,32.57
2018-01-27T17:14:59.159Z,28.53
2018-01-27T17:17:26.818Z,26.80
2018-01-27T17:19:55.145Z,30.87
2018-01-27T17:22:22.689Z,29.87
2018-01-27T17:24:50.239Z,29.60
2018-01-27T17:27:17.786Z,27.40
2018-01-27T17:29:45.337Z,25.43
2018-01-27T17:32:12.881Z,25.40
2018-01-27T17:34:41.337Z,27.37
2018-01-27T17:37:08.882Z,26.80
2018-01-27T17:39:37.465Z,35.80
2018-01-27T17:42:05.010Z,26.70
2018-01-27T17:44:32.562Z,24.67
2018-01-27T17:47:00.214Z,31.50
2018-01-27T17:49:27.765Z,30.93
2018-01-27T17:51:55.306Z,30.40
2018-01-27T17:54:22.849Z,31.83
2018-01-27T17:56:50.422Z,26.37
2018-01-27T17:59:17.975Z,32.13
2018-01-27T18:01:45.523Z,30.33
2018-01-27T18:04:13.062Z,33.67
2018-01-27T18:06:40.605Z,30.60
2018-01-27T18:09:08.157Z,29.23
2018-01-27T18:11:35.709Z,28.80
2018-01-27T18:14:03.334Z,36.67
2018-01-27T18:16:30.934Z,27.30
2018-01-27T18:18:58.480Z,40.43
2018-01-27T18:21:26.823Z,36.57
2018-01-27T18:23:54.377Z,29.63
2018-01-27T18:26:21.926Z,39.03
2018-01-27T18:28:49.550Z,56.17
2018-01-27T18:31:17.093Z,36.50
2018-01-27T18:33:44.641Z,35.00
2018-01-27T18:36:12.198Z,42.77
2018-01-27T18:38:39.742Z,51.57
2018-01-27T18:41:07.324Z,50.97
2018-01-27T18:43:34.917Z,37.13
2018-01-27T18:46:02.471Z,39.30
2018-01-27T18:48:30.021Z,44.27
2018-01-27T18:50:57.566Z,55.93
2018-01-27T18:53:25.110Z,51.03
2018-01-27T18:55:53.690Z,49.83
2018-01-27T18:58:21.270Z,55.13
2018-01-27T19:00:48.813Z,48.57
2018-01-27T19:03:17.343Z,54.40
2018-01-27T19:05:44.901Z,49.77
2018-01-27T19:08:12.643Z,52.43
2018-01-27T19:10:40.433Z,51.77
2018-01-27T19:13:07.981Z,46.93
2018-01-27T19:15:35.559Z,42.40
2018-01-27T19:18:03.908Z,46.77
2018-01-27T19:20:32.293Z,45.37
2018-01-27T19:23:00.638Z,46.87
2018-01-27T19:25:29.098Z,54.97
2018-01-27T19:27:56.654Z,52.90
2018-01-27T19:30:24.206Z,48.30
2018-01-27T19:32:51.754Z,45.40
2018-01-27T19:35:19.327Z,55.80
2018-01-27T19:37:46.873Z,55.27
2018-01-27T19:40:14.417Z,60.73
2018-01-27T19:42:41.968Z,57.83
2018-01-27T19:45:09.513Z,60.90
2018-01-27T19:47:37.950Z,70.70
2018-01-27T19:50:05.598Z,56.17
2018-01-27T19:52:33.158Z,56.27
2018-01-27T19:55:00.703Z,57.10
2018-01-27T19:57:28.249Z,57.30
2018-01-27T19:59:55.799Z,57.53
2018-01-27T20:02:23.346Z,61.90
2018-01-27T20:04:50.964Z,49.93
2018-01-27T20:07:18.522Z,57.50
2018-01-27T20:09:46.873Z,61.80
2018-01-27T20:12:14.707Z,62.67
2018-01-27T20:14:42.253Z,56.73
2018-01-27T20:17:09.881Z,52.20
2018-01-27T20:19:38.040Z,69.80
2018-01-27T20:22:05.595Z,62.23
2018-01-27T20:24:33.962Z,61.03
2018-01-27T20:27:01.570Z,63.97
2018-01-27T20:29:29.114Z,64.70
2018-01-27T20:31:56.651Z,78.13
2018-01-27T20:34:24.268Z,74.60
2018-01-27T20:36:51.794Z,70.37
2018-01-27T20:39:19.374Z,95.33
2018-01-27T20:41:47.000Z,83.27
2018-01-27T20:44:14.591Z,71.17
2018-01-27T20:46:42.170Z,67.07
2018-01-27T20:49:10.326Z,74.87
2018-01-27T20:51:37.869Z,63.67
2018-01-27T20:54:05.421Z,74.27
2018-01-27T20:56:32.978Z,80.47
2018-01-27T20:59:00.528Z,80.33
2018-01-27T21:01:28.074Z,78.00
2018-01-27T21:03:55.790Z,82.40
2018-01-27T21:06:23.342Z,81.60
2018-01-27T21:08:50.902Z,78.07
2018-01-27T21:11:18.478Z,84.00
2018-01-27T21:13:46.962Z,71.50
2018-01-27T21:16:15.422Z,90.43
2018-01-27T21:18:43.820Z,80.17
2018-01-27T21:21:11.362Z,82.17
2018-01-27T21:23:38.911Z,103.07
2018-01-27T21:26:06.465Z,82.27
2018-01-27T21:28:34.010Z,84.93
2018-01-27T21:31:01.553Z,95.30
2018-01-27T21:33:29.102Z,91.67
2018-01-27T21:35:58.480Z,84.77
2018-01-27T21:38:26.836Z,100.73
2018-01-27T21:40:54.378Z,95.50
2018-01-27T21:43:21.925Z,83.10
2018-01-27T21:45:49.542Z,109.87
2018-01-27T21:48:17.082Z,75.33
2018-01-27T21:50:44.636Z,100.30
2018-01-27T21:53:12.222Z,97.97
2018-01-27T21:55:39.814Z,93.83
2018-01-27T21:58:07.390Z,83.60
2018-01-27T22:00:34.949Z,91.77
2018-01-27T22:03:02.559Z,95.63
2018-01-27T22:05:30.102Z,86.33
2018-01-27T22:07:57.649Z,74.77
2018-01-27T22:10:25.194Z,89.83
2018-01-27T22:12:52.738Z,76.83
2018-01-27T22:15:20.278Z,87.37
2018-01-27T22:17:47.834Z,95.03
2018-01-27T22:20:15.466Z,83.73
2018-01-27T22:22:43.065Z,75.37
2018-01-27T22:25:10.628Z,87.40
2018-01-27T22:27:38.382Z,92.37
2018-01-27T22:30:06.702Z,82.47
2018-01-27T22:32:34.246Z,89.57
2018-01-27T22:35:01.789Z,98.80
2018-01-27T22:37:29.342Z,88.53
2018-01-27T22:39:56.885Z,83.70
2018-01-27T22:42:24.465Z,85.63
2018-01-27T22:44:52.024Z,74.33
2018-01-27T22:47:19.574Z,90.43
2018-01-27T22:49:47.916Z,68.17
2018-01-27T22:52:16.461Z,80.73
2018-01-27T22:54:44.814Z,71.83
2018-01-27T22:57:12.359Z,71.33
2018-01-27T22:59:40.894Z,64.33
2018-01-27T23:02:09.230Z,75.83
2018-01-27T23:04:37.617Z,75.03
2018-01-27T23:07:05.862Z,66.93
2018-01-27T23:09:34.175Z,55.17
2018-01-27T23:12:01.842Z,53.00
2018-01-27T23:14:29.601Z,56.93
2018-01-27T23:16:57.165Z,49.77
2018-01-27T23:19:24.713Z,42.50
2018-01-27T23:21:52.259Z,56.30
2018-01-27T23:24:19.812Z,45.70
2018-01-27T23:26:48.130Z,40.70
2018-01-27T23:29:16.573Z,43.50
2018-01-27T23:31:44.889Z,38.30
2018-01-27T23:34:13.232Z,44.30
2018-01-27T23:36:41.648Z,42.20
2018-01-27T23:39:10.109Z,37.77
2018-01-27T23:41:38.710Z,35.00
2018-01-27T23:44:07.165Z,33.50
2018-01-27T23:46:35.410Z,42.33
2018-01-27T23:49:03.725Z,36.23
2018-01-27T23:51:32.098Z,29.53
2018-01-27T23:53:59.641Z,31.10
2018-01-27T23:56:28.121Z,26.67
2018-01-27T23:58:56.610Z,28.00
